Pagina principale
METAR-TAF:

METAR-TAF

Aeroporti :

Solenzara, Francia

Base di Solenzara

latitudine: 41-55N, longitudine: 009-24E, altezza: 8 m

Osservazione

Il bollettino è stato emesso 32 minuti fa, alle 09:00 UTC
Vento 9 kt da sud
Temperature 25°C
Umidità 50%
Pressione 1017 hPa
Visibilità 10 km o più
nessuna nube inferiore a 1500 m e nessun cumulonembo

METAR: LFKS 290900Z AUTO 17009KT CAVOK 25/14 Q1017

Ora: 11:32 (09:32 UTC)

Previsione

Il bollettino è stato emesso 1 ora e 32 minuti fa, alle 08:00 UTC
Previsione valida dal 29 alle 09 UTC al 30 alle 09 UTC
Vento 6 kt da est/sud-est
Visibilità 10 km o più
nessuna nube inferiore a 1500 m e nessun cumulonembo

TAF: LFKS 290800Z 2909/3009 12006KT CAVOK

Osservazioni e previsioni meteorologiche di più di 4000 aeroporti (messaggi METAR e TAF).

Le stazioni disponibili sono rappresentate dai dischi gialli e rossi sulla carta.

Puntare il mouse per vedere il nome della stazione.

Clicca sopra per visualizzare le osservazioni e previsioni meteorologiche.

Per cambiare la mappa : fare clic sui pulsanti verdi con una croce nera per ingrandire, il pulsante verde con un trattino per diminuire, o sulla freccia verde per le mappe adiacenti.


METAR-TAF: